sensor_id;sensor_type;location;lat;lon;timestamp;P1;durP1;ratioP1;P2;durP2;ratioP2
44989;SDS011;30723;51.206;3.326;2022-12-10T00:00:17;366.58;;;38.05;;
44989;SDS011;30723;51.206;3.326;2022-12-10T00:02:42;384.45;;;39.60;;
44989;SDS011;30723;51.206;3.326;2022-12-10T00:05:08;407.13;;;50.92;;
44989;SDS011;30723;51.206;3.326;2022-12-10T00:07:34;427.35;;;42.67;;
44989;SDS011;30723;51.206;3.326;2022-12-10T00:09:59;402.55;;;41.83;;
44989;SDS011;30723;51.206;3.326;2022-12-10T00:12:25;261.20;;;41.20;;
44989;SDS011;30723;51.206;3.326;2022-12-10T00:14:51;335.70;;;37.05;;
44989;SDS011;30723;51.206;3.326;2022-12-10T00:17:17;332.85;;;38.78;;
44989;SDS011;30723;51.206;3.326;2022-12-10T00:19:43;419.80;;;38.25;;
44989;SDS011;30723;51.206;3.326;2022-12-10T00:22:08;399.40;;;38.88;;
44989;SDS011;30723;51.206;3.326;2022-12-10T00:24:34;262.65;;;35.08;;
44989;SDS011;30723;51.206;3.326;2022-12-10T00:27:00;363.50;;;38.40;;
44989;SDS011;30723;51.206;3.326;2022-12-10T00:29:26;359.95;;;35.10;;
44989;SDS011;30723;51.206;3.326;2022-12-10T00:31:51;328.13;;;36.30;;
44989;SDS011;30723;51.206;3.326;2022-12-10T00:34:17;350.50;;;36.67;;
44989;SDS011;30723;51.206;3.326;2022-12-10T00:36:44;302.77;;;32.85;;
44989;SDS011;30723;51.206;3.326;2022-12-10T00:39:12;341.92;;;33.92;;
44989;SDS011;30723;51.206;3.326;2022-12-10T00:41:39;324.58;;;34.33;;
44989;SDS011;30723;51.206;3.326;2022-12-10T00:44:05;240.13;;;32.25;;
44989;SDS011;30723;51.206;3.326;2022-12-10T00:46:31;242.25;;;32.90;;
44989;SDS011;30723;51.206;3.326;2022-12-10T00:48:57;383.23;;;37.78;;
44989;SDS011;30723;51.206;3.326;2022-12-10T00:51:24;310.25;;;33.83;;
44989;SDS011;30723;51.206;3.326;2022-12-10T00:53:51;348.60;;;34.03;;
44989;SDS011;30723;51.206;3.326;2022-12-10T00:56:21;291.77;;;31.58;;
44989;SDS011;30723;51.206;3.326;2022-12-10T00:58:49;198.93;;;28.38;;
44989;SDS011;30723;51.206;3.326;2022-12-10T01:01:22;239.82;;;29.95;;
44989;SDS011;30723;51.206;3.326;2022-12-10T01:03:49;228.63;;;30.55;;
44989;SDS011;30723;51.206;3.326;2022-12-10T01:06:17;249.77;;;29.65;;
44989;SDS011;30723;51.206;3.326;2022-12-10T01:08:56;184.00;;;27.83;;
44989;SDS011;30723;51.206;3.326;2022-12-10T01:11:25;184.52;;;28.85;;
44989;SDS011;30723;51.206;3.326;2022-12-10T01:13:53;195.60;;;28.55;;
44989;SDS011;30723;51.206;3.326;2022-12-10T01:16:20;233.02;;;28.92;;
44989;SDS011;30723;51.206;3.326;2022-12-10T01:18:47;206.63;;;31.13;;
44989;SDS011;30723;51.206;3.326;2022-12-10T01:21:14;165.30;;;30.33;;
44989;SDS011;30723;51.206;3.326;2022-12-10T01:23:42;170.85;;;29.70;;
44989;SDS011;30723;51.206;3.326;2022-12-10T01:26:11;245.30;;;32.45;;
44989;SDS011;30723;51.206;3.326;2022-12-10T01:28:39;232.18;;;33.15;;
44989;SDS011;30723;51.206;3.326;2022-12-10T01:31:13;190.93;;;30.23;;
44989;SDS011;30723;51.206;3.326;2022-12-10T01:33:39;237.85;;;31.25;;
44989;SDS011;30723;51.206;3.326;2022-12-10T01:36:06;240.65;;;34.30;;
44989;SDS011;30723;51.206;3.326;2022-12-10T01:38:34;249.75;;;32.65;;
44989;SDS011;30723;51.206;3.326;2022-12-10T01:41:01;260.38;;;31.05;;
44989;SDS011;30723;51.206;3.326;2022-12-10T01:43:27;267.15;;;30.65;;
44989;SDS011;30723;51.206;3.326;2022-12-10T01:46:12;275.15;;;32.58;;
44989;SDS011;30723;51.206;3.326;2022-12-10T01:48:38;277.73;;;29.85;;
44989;SDS011;30723;51.206;3.326;2022-12-10T01:51:03;259.85;;;33.83;;
44989;SDS011;30723;51.206;3.326;2022-12-10T01:53:30;234.18;;;30.77;;
44989;SDS011;30723;51.206;3.326;2022-12-10T01:55:56;204.25;;;28.90;;
44989;SDS011;30723;51.206;3.326;2022-12-10T01:58:22;293.10;;;36.15;;
44989;SDS011;30723;51.206;3.326;2022-12-10T02:01:00;261.60;;;33.83;;
44989;SDS011;30723;51.206;3.326;2022-12-10T02:06:37;272.83;;;32.97;;
44989;SDS011;30723;51.206;3.326;2022-12-10T02:09:08;266.23;;;34.90;;
44989;SDS011;30723;51.206;3.326;2022-12-10T02:17:11;228.73;;;32.08;;
44989;SDS011;30723;51.206;3.326;2022-12-10T02:20:03;293.55;;;34.72;;
44989;SDS011;30723;51.206;3.326;2022-12-10T02:22:28;254.48;;;33.47;;
44989;SDS011;30723;51.206;3.326;2022-12-10T02:24:59;277.88;;;33.38;;
44989;SDS011;30723;51.206;3.326;2022-12-10T02:27:31;206.18;;;30.55;;
44989;SDS011;30723;51.206;3.326;2022-12-10T02:30:12;297.92;;;32.90;;
44989;SDS011;30723;51.206;3.326;2022-12-10T02:32:38;248.55;;;31.13;;
44989;SDS011;30723;51.206;3.326;2022-12-10T02:35:09;192.90;;;29.95;;
44989;SDS011;30723;51.206;3.326;2022-12-10T02:38:02;177.33;;;26.30;;
44989;SDS011;30723;51.206;3.326;2022-12-10T02:40:35;195.15;;;31.00;;
44989;SDS011;30723;51.206;3.326;2022-12-10T02:43:03;234.80;;;29.95;;
44989;SDS011;30723;51.206;3.326;2022-12-10T02:45:29;255.30;;;30.70;;
44989;SDS011;30723;51.206;3.326;2022-12-10T02:47:57;286.52;;;31.60;;
44989;SDS011;30723;51.206;3.326;2022-12-10T02:50:24;236.93;;;28.83;;
44989;SDS011;30723;51.206;3.326;2022-12-10T02:52:50;238.93;;;31.58;;
44989;SDS011;30723;51.206;3.326;2022-12-10T02:55:17;240.27;;;31.02;;
44989;SDS011;30723;51.206;3.326;2022-12-10T02:57:49;279.67;;;35.97;;
44989;SDS011;30723;51.206;3.326;2022-12-10T03:00:47;271.70;;;32.38;;
44989;SDS011;30723;51.206;3.326;2022-12-10T03:03:22;304.48;;;27.67;;
44989;SDS011;30723;51.206;3.326;2022-12-10T03:08:27;302.10;;;29.13;;
44989;SDS011;30723;51.206;3.326;2022-12-10T03:16:15;217.32;;;25.83;;
44989;SDS011;30723;51.206;3.326;2022-12-10T03:18:42;292.75;;;29.70;;
44989;SDS011;30723;51.206;3.326;2022-12-10T03:21:10;252.10;;;28.27;;
44989;SDS011;30723;51.206;3.326;2022-12-10T03:23:39;248.30;;;28.33;;
44989;SDS011;30723;51.206;3.326;2022-12-10T03:26:08;268.60;;;29.10;;
44989;SDS011;30723;51.206;3.326;2022-12-10T03:28:37;297.25;;;32.25;;
44989;SDS011;30723;51.206;3.326;2022-12-10T03:31:07;267.58;;;28.65;;
44989;SDS011;30723;51.206;3.326;2022-12-10T03:33:36;292.27;;;31.42;;
44989;SDS011;30723;51.206;3.326;2022-12-10T03:36:03;326.17;;;29.40;;
44989;SDS011;30723;51.206;3.326;2022-12-10T03:38:31;245.23;;;25.88;;
44989;SDS011;30723;51.206;3.326;2022-12-10T03:40:57;273.50;;;29.10;;
44989;SDS011;30723;51.206;3.326;2022-12-10T03:43:22;256.98;;;27.77;;
44989;SDS011;30723;51.206;3.326;2022-12-10T03:45:48;264.90;;;29.30;;
44989;SDS011;30723;51.206;3.326;2022-12-10T03:48:14;254.07;;;25.42;;
44989;SDS011;30723;51.206;3.326;2022-12-10T03:50:39;247.65;;;27.80;;
44989;SDS011;30723;51.206;3.326;2022-12-10T03:53:05;216.80;;;27.95;;
44989;SDS011;30723;51.206;3.326;2022-12-10T03:55:31;249.90;;;27.90;;
44989;SDS011;30723;51.206;3.326;2022-12-10T03:57:58;238.57;;;30.30;;
44989;SDS011;30723;51.206;3.326;2022-12-10T04:00:23;267.95;;;30.00;;
44989;SDS011;30723;51.206;3.326;2022-12-10T04:02:49;295.83;;;32.42;;
44989;SDS011;30723;51.206;3.326;2022-12-10T04:05:15;246.77;;;31.00;;
44989;SDS011;30723;51.206;3.326;2022-12-10T04:07:41;264.85;;;35.83;;
44989;SDS011;30723;51.206;3.326;2022-12-10T04:10:07;282.10;;;32.45;;
44989;SDS011;30723;51.206;3.326;2022-12-10T04:12:33;297.30;;;32.13;;
44989;SDS011;30723;51.206;3.326;2022-12-10T04:14:59;269.35;;;32.35;;
44989;SDS011;30723;51.206;3.326;2022-12-10T04:17:43;220.00;;;30.27;;
44989;SDS011;30723;51.206;3.326;2022-12-10T04:20:09;228.95;;;26.73;;
44989;SDS011;30723;51.206;3.326;2022-12-10T04:22:55;224.25;;;29.33;;
44989;SDS011;30723;51.206;3.326;2022-12-10T04:25:39;301.23;;;30.02;;
44989;SDS011;30723;51.206;3.326;2022-12-10T04:28:23;202.82;;;25.77;;
44989;SDS011;30723;51.206;3.326;2022-12-10T04:30:49;205.07;;;25.30;;
44989;SDS011;30723;51.206;3.326;2022-12-10T04:33:15;188.85;;;25.38;;
44989;SDS011;30723;51.206;3.326;2022-12-10T04:35:40;216.20;;;29.00;;
44989;SDS011;30723;51.206;3.326;2022-12-10T04:38:06;207.55;;;29.58;;
44989;SDS011;30723;51.206;3.326;2022-12-10T04:40:32;231.32;;;29.67;;
44989;SDS011;30723;51.206;3.326;2022-12-10T04:42:57;209.82;;;28.13;;
44989;SDS011;30723;51.206;3.326;2022-12-10T04:45:23;258.00;;;30.15;;
44989;SDS011;30723;51.206;3.326;2022-12-10T04:47:49;212.70;;;28.70;;
44989;SDS011;30723;51.206;3.326;2022-12-10T04:50:15;208.18;;;29.52;;
44989;SDS011;30723;51.206;3.326;2022-12-10T04:52:43;192.48;;;26.75;;
44989;SDS011;30723;51.206;3.326;2022-12-10T04:55:09;240.40;;;29.25;;
44989;SDS011;30723;51.206;3.326;2022-12-10T04:57:34;226.85;;;27.27;;
44989;SDS011;30723;51.206;3.326;2022-12-10T05:00:00;240.70;;;30.40;;
44989;SDS011;30723;51.206;3.326;2022-12-10T05:02:26;232.93;;;27.45;;
44989;SDS011;30723;51.206;3.326;2022-12-10T05:04:52;250.77;;;30.73;;
44989;SDS011;30723;51.206;3.326;2022-12-10T05:07:17;225.18;;;27.67;;
44989;SDS011;30723;51.206;3.326;2022-12-10T05:09:43;274.90;;;31.08;;
44989;SDS011;30723;51.206;3.326;2022-12-10T05:12:09;203.43;;;28.75;;
44989;SDS011;30723;51.206;3.326;2022-12-10T05:14:34;251.23;;;27.25;;
44989;SDS011;30723;51.206;3.326;2022-12-10T05:17:00;253.88;;;30.17;;
44989;SDS011;30723;51.206;3.326;2022-12-10T05:19:26;203.52;;;28.17;;
44989;SDS011;30723;51.206;3.326;2022-12-10T05:21:52;245.35;;;28.52;;
44989;SDS011;30723;51.206;3.326;2022-12-10T05:24:36;302.85;;;29.33;;
44989;SDS011;30723;51.206;3.326;2022-12-10T05:27:02;216.93;;;27.42;;
44989;SDS011;30723;51.206;3.326;2022-12-10T05:29:28;246.77;;;29.40;;
44989;SDS011;30723;51.206;3.326;2022-12-10T05:31:54;200.20;;;26.95;;
44989;SDS011;30723;51.206;3.326;2022-12-10T05:34:20;188.23;;;26.48;;
44989;SDS011;30723;51.206;3.326;2022-12-10T05:36:46;215.32;;;29.20;;
44989;SDS011;30723;51.206;3.326;2022-12-10T05:39:11;174.85;;;28.05;;
44989;SDS011;30723;51.206;3.326;2022-12-10T05:41:38;199.07;;;30.33;;
44989;SDS011;30723;51.206;3.326;2022-12-10T05:44:04;218.27;;;27.42;;
44989;SDS011;30723;51.206;3.326;2022-12-10T05:46:31;187.43;;;28.95;;
44989;SDS011;30723;51.206;3.326;2022-12-10T05:49:00;162.57;;;27.92;;
44989;SDS011;30723;51.206;3.326;2022-12-10T05:51:28;191.02;;;28.23;;
44989;SDS011;30723;51.206;3.326;2022-12-10T05:53:55;186.23;;;27.20;;
44989;SDS011;30723;51.206;3.326;2022-12-10T05:56:23;195.00;;;28.05;;
44989;SDS011;30723;51.206;3.326;2022-12-10T05:58:50;169.27;;;28.00;;
44989;SDS011;30723;51.206;3.326;2022-12-10T06:01:21;150.98;;;26.67;;
44989;SDS011;30723;51.206;3.326;2022-12-10T06:03:49;146.95;;;26.95;;
44989;SDS011;30723;51.206;3.326;2022-12-10T06:06:24;124.68;;;26.50;;
44989;SDS011;30723;51.206;3.326;2022-12-10T06:08:52;173.95;;;28.20;;
44989;SDS011;30723;51.206;3.326;2022-12-10T06:11:19;185.50;;;27.65;;
44989;SDS011;30723;51.206;3.326;2022-12-10T06:13:45;157.05;;;29.05;;
44989;SDS011;30723;51.206;3.326;2022-12-10T06:16:11;137.10;;;27.58;;
44989;SDS011;30723;51.206;3.326;2022-12-10T06:18:38;165.90;;;29.38;;
44989;SDS011;30723;51.206;3.326;2022-12-10T06:21:05;124.65;;;27.38;;
44989;SDS011;30723;51.206;3.326;2022-12-10T06:23:34;153.40;;;28.83;;
44989;SDS011;30723;51.206;3.326;2022-12-10T06:26:07;193.60;;;30.55;;
44989;SDS011;30723;51.206;3.326;2022-12-10T06:28:36;248.82;;;30.35;;
44989;SDS011;30723;51.206;3.326;2022-12-10T06:31:02;201.18;;;31.92;;
44989;SDS011;30723;51.206;3.326;2022-12-10T06:33:28;173.45;;;30.70;;
44989;SDS011;30723;51.206;3.326;2022-12-10T06:35:54;246.63;;;30.67;;
44989;SDS011;30723;51.206;3.326;2022-12-10T06:38:20;209.23;;;31.30;;
44989;SDS011;30723;51.206;3.326;2022-12-10T06:40:45;227.30;;;30.80;;
44989;SDS011;30723;51.206;3.326;2022-12-10T06:43:11;233.65;;;32.67;;
44989;SDS011;30723;51.206;3.326;2022-12-10T06:45:41;207.20;;;30.42;;
44989;SDS011;30723;51.206;3.326;2022-12-10T06:48:08;213.10;;;28.35;;
44989;SDS011;30723;51.206;3.326;2022-12-10T06:50:34;245.02;;;30.20;;
44989;SDS011;30723;51.206;3.326;2022-12-10T06:53:01;224.73;;;31.58;;
44989;SDS011;30723;51.206;3.326;2022-12-10T06:55:27;221.38;;;29.38;;
44989;SDS011;30723;51.206;3.326;2022-12-10T06:57:53;215.07;;;31.73;;
44989;SDS011;30723;51.206;3.326;2022-12-10T07:00:20;246.93;;;33.50;;
44989;SDS011;30723;51.206;3.326;2022-12-10T07:02:46;202.27;;;32.25;;
44989;SDS011;30723;51.206;3.326;2022-12-10T07:05:13;234.10;;;29.83;;
44989;SDS011;30723;51.206;3.326;2022-12-10T07:07:38;182.02;;;31.00;;
44989;SDS011;30723;51.206;3.326;2022-12-10T07:10:04;217.40;;;30.67;;
44989;SDS011;30723;51.206;3.326;2022-12-10T07:12:30;204.13;;;31.73;;
44989;SDS011;30723;51.206;3.326;2022-12-10T07:14:58;181.63;;;29.58;;
44989;SDS011;30723;51.206;3.326;2022-12-10T07:17:24;166.05;;;31.50;;
44989;SDS011;30723;51.206;3.326;2022-12-10T07:19:50;161.73;;;29.63;;
44989;SDS011;30723;51.206;3.326;2022-12-10T07:22:16;202.35;;;29.08;;
44989;SDS011;30723;51.206;3.326;2022-12-10T07:24:42;159.73;;;30.08;;
44989;SDS011;30723;51.206;3.326;2022-12-10T07:27:08;166.88;;;30.38;;
44989;SDS011;30723;51.206;3.326;2022-12-10T07:29:34;115.32;;;29.48;;
44989;SDS011;30723;51.206;3.326;2022-12-10T07:32:00;117.20;;;30.35;;
44989;SDS011;30723;51.206;3.326;2022-12-10T07:34:26;143.77;;;32.97;;
44989;SDS011;30723;51.206;3.326;2022-12-10T07:36:52;110.95;;;32.47;;
44989;SDS011;30723;51.206;3.326;2022-12-10T07:39:17;115.00;;;32.10;;
44989;SDS011;30723;51.206;3.326;2022-12-10T07:41:50;91.82;;;31.30;;
44989;SDS011;30723;51.206;3.326;2022-12-10T07:44:20;87.93;;;32.88;;
44989;SDS011;30723;51.206;3.326;2022-12-10T07:46:50;104.68;;;32.95;;
44989;SDS011;30723;51.206;3.326;2022-12-10T07:49:17;101.40;;;31.88;;
44989;SDS011;30723;51.206;3.326;2022-12-10T07:51:44;106.72;;;34.72;;
44989;SDS011;30723;51.206;3.326;2022-12-10T07:54:11;111.05;;;33.97;;
44989;SDS011;30723;51.206;3.326;2022-12-10T07:56:37;102.45;;;35.47;;
44989;SDS011;30723;51.206;3.326;2022-12-10T07:59:02;113.75;;;33.25;;
44989;SDS011;30723;51.206;3.326;2022-12-10T08:01:28;103.85;;;34.03;;
44989;SDS011;30723;51.206;3.326;2022-12-10T08:03:55;114.18;;;34.85;;
44989;SDS011;30723;51.206;3.326;2022-12-10T08:06:24;121.37;;;35.30;;
44989;SDS011;30723;51.206;3.326;2022-12-10T08:08:52;113.22;;;34.35;;
44989;SDS011;30723;51.206;3.326;2022-12-10T08:11:19;107.88;;;34.13;;
44989;SDS011;30723;51.206;3.326;2022-12-10T08:13:45;103.65;;;32.97;;
44989;SDS011;30723;51.206;3.326;2022-12-10T08:16:16;119.68;;;35.80;;
44989;SDS011;30723;51.206;3.326;2022-12-10T08:18:43;110.50;;;33.13;;
44989;SDS011;30723;51.206;3.326;2022-12-10T08:21:14;101.60;;;32.80;;
44989;SDS011;30723;51.206;3.326;2022-12-10T08:26:07;101.10;;;30.65;;
44989;SDS011;30723;51.206;3.326;2022-12-10T08:28:35;103.90;;;33.53;;
44989;SDS011;30723;51.206;3.326;2022-12-10T08:31:01;109.18;;;33.38;;
44989;SDS011;30723;51.206;3.326;2022-12-10T08:33:28;106.10;;;32.75;;
44989;SDS011;30723;51.206;3.326;2022-12-10T08:35:57;105.75;;;33.03;;
44989;SDS011;30723;51.206;3.326;2022-12-10T08:38:26;114.68;;;35.35;;
44989;SDS011;30723;51.206;3.326;2022-12-10T08:40:52;111.70;;;36.70;;
44989;SDS011;30723;51.206;3.326;2022-12-10T08:43:18;115.72;;;35.78;;
44989;SDS011;30723;51.206;3.326;2022-12-10T08:45:44;115.85;;;33.63;;
44989;SDS011;30723;51.206;3.326;2022-12-10T08:48:09;108.45;;;34.53;;
44989;SDS011;30723;51.206;3.326;2022-12-10T08:50:36;109.57;;;36.38;;
44989;SDS011;30723;51.206;3.326;2022-12-10T08:53:02;105.95;;;34.90;;
44989;SDS011;30723;51.206;3.326;2022-12-10T08:55:28;97.80;;;31.88;;
44989;SDS011;30723;51.206;3.326;2022-12-10T08:57:53;103.57;;;33.47;;
44989;SDS011;30723;51.206;3.326;2022-12-10T09:00:20;102.07;;;33.45;;
44989;SDS011;30723;51.206;3.326;2022-12-10T09:02:46;100.97;;;33.83;;
44989;SDS011;30723;51.206;3.326;2022-12-10T09:05:12;110.05;;;34.97;;
44989;SDS011;30723;51.206;3.326;2022-12-10T09:07:38;116.40;;;36.22;;
44989;SDS011;30723;51.206;3.326;2022-12-10T09:10:04;108.53;;;34.83;;
44989;SDS011;30723;51.206;3.326;2022-12-10T09:12:30;107.25;;;33.22;;
44989;SDS011;30723;51.206;3.326;2022-12-10T09:14:57;99.20;;;33.15;;
44989;SDS011;30723;51.206;3.326;2022-12-10T09:17:23;112.43;;;35.22;;
44989;SDS011;30723;51.206;3.326;2022-12-10T09:19:48;111.82;;;35.90;;
44989;SDS011;30723;51.206;3.326;2022-12-10T09:22:14;107.78;;;34.50;;
44989;SDS011;30723;51.206;3.326;2022-12-10T09:24:40;109.15;;;34.92;;
44989;SDS011;30723;51.206;3.326;2022-12-10T09:27:06;103.18;;;35.53;;
44989;SDS011;30723;51.206;3.326;2022-12-10T09:29:31;111.22;;;37.40;;
44989;SDS011;30723;51.206;3.326;2022-12-10T09:31:57;112.07;;;35.58;;
44989;SDS011;30723;51.206;3.326;2022-12-10T09:34:23;100.15;;;34.20;;
44989;SDS011;30723;51.206;3.326;2022-12-10T09:36:49;111.28;;;35.90;;
44989;SDS011;30723;51.206;3.326;2022-12-10T09:39:14;101.00;;;32.03;;
44989;SDS011;30723;51.206;3.326;2022-12-10T09:41:45;109.82;;;34.50;;
44989;SDS011;30723;51.206;3.326;2022-12-10T09:47:27;97.28;;;33.13;;
44989;SDS011;30723;51.206;3.326;2022-12-10T09:50:18;97.50;;;33.88;;
44989;SDS011;30723;51.206;3.326;2022-12-10T09:52:47;100.15;;;31.45;;
44989;SDS011;30723;51.206;3.326;2022-12-10T09:55:19;100.00;;;32.58;;
44989;SDS011;30723;51.206;3.326;2022-12-10T09:58:08;101.78;;;33.47;;
44989;SDS011;30723;51.206;3.326;2022-12-10T10:00:57;97.43;;;31.95;;
44989;SDS011;30723;51.206;3.326;2022-12-10T10:03:25;88.43;;;31.60;;
44989;SDS011;30723;51.206;3.326;2022-12-10T10:05:53;97.72;;;33.45;;
44989;SDS011;30723;51.206;3.326;2022-12-10T10:08:36;86.78;;;31.15;;
44989;SDS011;30723;51.206;3.326;2022-12-10T10:11:14;90.05;;;31.27;;
44989;SDS011;30723;51.206;3.326;2022-12-10T10:13:44;94.57;;;32.80;;
44989;SDS011;30723;51.206;3.326;2022-12-10T10:16:37;98.38;;;33.08;;
44989;SDS011;30723;51.206;3.326;2022-12-10T10:19:26;104.43;;;32.70;;
44989;SDS011;30723;51.206;3.326;2022-12-10T10:21:55;88.88;;;32.70;;
44989;SDS011;30723;51.206;3.326;2022-12-10T10:24:24;78.63;;;29.75;;
44989;SDS011;30723;51.206;3.326;2022-12-10T10:26:59;75.90;;;29.92;;
44989;SDS011;30723;51.206;3.326;2022-12-10T10:29:41;60.20;;;25.98;;
44989;SDS011;30723;51.206;3.326;2022-12-10T10:32:16;50.47;;;25.13;;
44989;SDS011;30723;51.206;3.326;2022-12-10T10:34:51;48.97;;;23.50;;
44989;SDS011;30723;51.206;3.326;2022-12-10T10:37:20;45.40;;;22.65;;
44989;SDS011;30723;51.206;3.326;2022-12-10T10:39:50;41.75;;;21.85;;
44989;SDS011;30723;51.206;3.326;2022-12-10T10:42:23;43.60;;;21.25;;
44989;SDS011;30723;51.206;3.326;2022-12-10T10:45:06;41.08;;;20.25;;
44989;SDS011;30723;51.206;3.326;2022-12-10T10:50:47;35.58;;;18.60;;
44989;SDS011;30723;51.206;3.326;2022-12-10T10:56:42;34.40;;;18.10;;
44989;SDS011;30723;51.206;3.326;2022-12-10T10:58:58;29.15;;;17.02;;
44989;SDS011;30723;51.206;3.326;2022-12-10T11:01:50;27.38;;;15.15;;
44989;SDS011;30723;51.206;3.326;2022-12-10T11:04:21;31.45;;;15.27;;
44989;SDS011;30723;51.206;3.326;2022-12-10T11:07:18;27.58;;;14.52;;
44989;SDS011;30723;51.206;3.326;2022-12-10T11:09:52;23.33;;;13.80;;
44989;SDS011;30723;51.206;3.326;2022-12-10T11:12:38;26.13;;;13.38;;
44989;SDS011;30723;51.206;3.326;2022-12-10T11:17:53;24.27;;;13.05;;
44989;SDS011;30723;51.206;3.326;2022-12-10T11:20:21;21.70;;;13.02;;
44989;SDS011;30723;51.206;3.326;2022-12-10T11:22:53;22.70;;;12.73;;
44989;SDS011;30723;51.206;3.326;2022-12-10T11:25:28;25.85;;;13.05;;
44989;SDS011;30723;51.206;3.326;2022-12-10T11:28:10;28.35;;;14.32;;
44989;SDS011;30723;51.206;3.326;2022-12-10T11:30:42;24.52;;;13.75;;
44989;SDS011;30723;51.206;3.326;2022-12-10T11:36:21;23.58;;;13.63;;
44989;SDS011;30723;51.206;3.326;2022-12-10T11:44:22;23.67;;;13.60;;
44989;SDS011;30723;51.206;3.326;2022-12-10T11:50:13;23.35;;;13.10;;
44989;SDS011;30723;51.206;3.326;2022-12-10T11:55:35;22.10;;;13.25;;
44989;SDS011;30723;51.206;3.326;2022-12-10T12:14:39;21.50;;;13.02;;
44989;SDS011;30723;51.206;3.326;2022-12-10T12:17:11;19.50;;;12.82;;
44989;SDS011;30723;51.206;3.326;2022-12-10T12:19:50;18.77;;;12.57;;
44989;SDS011;30723;51.206;3.326;2022-12-10T12:22:45;20.75;;;12.85;;
44989;SDS011;30723;51.206;3.326;2022-12-10T12:25:17;21.23;;;12.57;;
44989;SDS011;30723;51.206;3.326;2022-12-10T12:27:53;23.35;;;12.73;;
44989;SDS011;30723;51.206;3.326;2022-12-10T12:30:24;20.23;;;11.98;;
44989;SDS011;30723;51.206;3.326;2022-12-10T12:35:44;21.33;;;12.60;;
44989;SDS011;30723;51.206;3.326;2022-12-10T12:40:40;18.40;;;10.70;;
44989;SDS011;30723;51.206;3.326;2022-12-10T12:43:14;18.25;;;10.93;;
44989;SDS011;30723;51.206;3.326;2022-12-10T12:45:48;15.60;;;9.80;;
44989;SDS011;30723;51.206;3.326;2022-12-10T12:48:32;19.08;;;10.43;;
44989;SDS011;30723;51.206;3.326;2022-12-10T12:51:09;17.08;;;10.65;;
44989;SDS011;30723;51.206;3.326;2022-12-10T12:53:57;16.73;;;10.43;;
44989;SDS011;30723;51.206;3.326;2022-12-10T12:59:21;14.48;;;8.32;;
44989;SDS011;30723;51.206;3.326;2022-12-10T13:04:47;6.90;;;4.72;;
44989;SDS011;30723;51.206;3.326;2022-12-10T13:09:45;7.03;;;4.00;;
44989;SDS011;30723;51.206;3.326;2022-12-10T13:12:18;4.95;;;3.42;;
44989;SDS011;30723;51.206;3.326;2022-12-10T13:15:00;7.68;;;3.90;;
44989;SDS011;30723;51.206;3.326;2022-12-10T13:17:38;4.82;;;3.60;;
44989;SDS011;30723;51.206;3.326;2022-12-10T13:22:56;6.28;;;3.78;;
44989;SDS011;30723;51.206;3.326;2022-12-10T13:33:50;9.30;;;4.60;;
44989;SDS011;30723;51.206;3.326;2022-12-10T13:36:23;8.70;;;5.40;;
44989;SDS011;30723;51.206;3.326;2022-12-10T13:39:11;35.33;;;21.27;;
44989;SDS011;30723;51.206;3.326;2022-12-10T13:41:42;11.18;;;7.78;;
44989;SDS011;30723;51.206;3.326;2022-12-10T13:50:01;19.15;;;11.65;;
44989;SDS011;30723;51.206;3.326;2022-12-10T14:06:20;24.35;;;9.93;;
44989;SDS011;30723;51.206;3.326;2022-12-10T14:11:20;25.02;;;13.95;;
44989;SDS011;30723;51.206;3.326;2022-12-10T14:13:51;18.52;;;11.23;;
44989;SDS011;30723;51.206;3.326;2022-12-10T14:16:22;20.80;;;12.35;;
44989;SDS011;30723;51.206;3.326;2022-12-10T14:18:58;23.85;;;15.57;;
44989;SDS011;30723;51.206;3.326;2022-12-10T14:21:26;24.17;;;15.35;;
44989;SDS011;30723;51.206;3.326;2022-12-10T14:23:57;22.15;;;14.70;;
44989;SDS011;30723;51.206;3.326;2022-12-10T14:26:27;22.15;;;15.00;;
44989;SDS011;30723;51.206;3.326;2022-12-10T14:29:08;29.17;;;16.95;;
44989;SDS011;30723;51.206;3.326;2022-12-10T14:31:47;24.73;;;16.40;;
44989;SDS011;30723;51.206;3.326;2022-12-10T14:34:18;22.15;;;14.63;;
44989;SDS011;30723;51.206;3.326;2022-12-10T14:36:50;24.88;;;14.88;;
44989;SDS011;30723;51.206;3.326;2022-12-10T14:39:25;25.65;;;14.93;;
44989;SDS011;30723;51.206;3.326;2022-12-10T14:41:55;25.27;;;15.85;;
44989;SDS011;30723;51.206;3.326;2022-12-10T14:44:23;24.92;;;15.85;;
44989;SDS011;30723;51.206;3.326;2022-12-10T14:46:49;28.58;;;15.90;;
44989;SDS011;30723;51.206;3.326;2022-12-10T14:49:19;27.15;;;16.65;;
44989;SDS011;30723;51.206;3.326;2022-12-10T14:51:51;26.10;;;16.90;;
44989;SDS011;30723;51.206;3.326;2022-12-10T14:54:27;28.17;;;16.13;;
44989;SDS011;30723;51.206;3.326;2022-12-10T14:57:06;26.23;;;16.25;;
44989;SDS011;30723;51.206;3.326;2022-12-10T14:59:35;35.75;;;15.07;;
44989;SDS011;30723;51.206;3.326;2022-12-10T15:02:11;24.95;;;14.23;;
44989;SDS011;30723;51.206;3.326;2022-12-10T15:04:46;25.75;;;14.50;;
44989;SDS011;30723;51.206;3.326;2022-12-10T15:07:14;48.35;;;26.55;;
44989;SDS011;30723;51.206;3.326;2022-12-10T15:09:48;31.92;;;19.10;;
44989;SDS011;30723;51.206;3.326;2022-12-10T15:12:58;31.30;;;16.65;;
44989;SDS011;30723;51.206;3.326;2022-12-10T15:15:56;32.05;;;18.58;;
44989;SDS011;30723;51.206;3.326;2022-12-10T15:18:13;60.28;;;42.95;;
44989;SDS011;30723;51.206;3.326;2022-12-10T15:20:54;33.08;;;17.73;;
44989;SDS011;30723;51.206;3.326;2022-12-10T15:23:41;33.70;;;16.92;;
44989;SDS011;30723;51.206;3.326;2022-12-10T15:26:24;37.45;;;19.67;;
44989;SDS011;30723;51.206;3.326;2022-12-10T15:29:14;32.20;;;17.45;;
44989;SDS011;30723;51.206;3.326;2022-12-10T15:31:49;27.60;;;16.90;;
44989;SDS011;30723;51.206;3.326;2022-12-10T15:34:19;28.10;;;16.58;;
44989;SDS011;30723;51.206;3.326;2022-12-10T15:36:50;29.23;;;18.23;;
44989;SDS011;30723;51.206;3.326;2022-12-10T15:39:19;29.67;;;16.38;;
44989;SDS011;30723;51.206;3.326;2022-12-10T15:41:51;25.55;;;16.83;;
44989;SDS011;30723;51.206;3.326;2022-12-10T15:47:00;34.35;;;19.92;;
44989;SDS011;30723;51.206;3.326;2022-12-10T15:49:45;67.90;;;35.65;;
44989;SDS011;30723;51.206;3.326;2022-12-10T15:52:16;49.63;;;29.40;;
44989;SDS011;30723;51.206;3.326;2022-12-10T15:54:44;38.78;;;23.83;;
44989;SDS011;30723;51.206;3.326;2022-12-10T15:57:18;30.63;;;19.58;;
44989;SDS011;30723;51.206;3.326;2022-12-10T16:00:24;49.28;;;26.45;;
44989;SDS011;30723;51.206;3.326;2022-12-10T16:05:28;34.70;;;19.20;;
44989;SDS011;30723;51.206;3.326;2022-12-10T16:08:01;36.20;;;21.83;;
44989;SDS011;30723;51.206;3.326;2022-12-10T16:10:40;38.70;;;22.08;;
44989;SDS011;30723;51.206;3.326;2022-12-10T16:13:10;35.40;;;22.10;;
44989;SDS011;30723;51.206;3.326;2022-12-10T16:15:45;38.05;;;23.23;;
44989;SDS011;30723;51.206;3.326;2022-12-10T16:18:13;35.00;;;22.63;;
44989;SDS011;30723;51.206;3.326;2022-12-10T16:20:39;51.90;;;26.77;;
44989;SDS011;30723;51.206;3.326;2022-12-10T16:23:05;43.72;;;24.77;;
44989;SDS011;30723;51.206;3.326;2022-12-10T16:25:31;42.65;;;26.42;;